Time;durP1;ratioP1;P1;durP2;ratioP2;P2;SDS_P1;SDS_P2;PMS_P1;PMS_P2;Temp;Humidity;BMP_temperature;BMP_pressure;BME280_temperature;BME280_humidity;BME280_pressure;Samples;Min_cycle;Max_cycle;Signal;HPM_P1;HPM_P2
2022/03/17 00:00:00;;;;;;;24.33;5.75;;;;;;;;;;20918039;28;20057;-59
2022/03/17 00:10:03;;;;;;;33.00;6.88;;;;;;;;;;20917853;28;20067;-62
2022/03/17 00:20:10;;;;;;;31.13;6.07;;;;;;;;;;20915611;28;20045;-59
2022/03/17 00:30:12;;;;;;;32.67;5.80;;;;;;;;;;20914736;28;20055;-62
2022/03/17 00:40:14;;;;;;;31.20;5.35;;;;;;;;;;20916373;28;20524;-62
2022/03/17 00:50:16;;;;;;;40.45;5.85;;;;;;;;;;20915972;28;20107;-60
2022/03/17 01:00:20;;;;;;;40.83;6.57;;;;;;;;;;20914274;28;20444;-62
2022/03/17 01:10:23;;;;;;;36.83;6.20;;;;;;;;;;20912898;28;20464;-62
2022/03/17 01:20:25;;;;;;;35.22;4.70;;;;;;;;;;20913366;28;20301;-60
2022/03/17 01:30:27;;;;;;;26.27;4.63;;;;;;;;;;20913500;28;20052;-59
2022/03/17 01:40:29;;;;;;;25.00;4.75;;;;;;;;;;20938989;28;20053;-59
2022/03/17 01:50:31;;;;;;;30.95;4.55;;;;;;;;;;20939812;28;20118;-61
2022/03/17 02:00:34;;;;;;;25.20;4.40;;;;;;;;;;20939819;28;20144;-61
2022/03/17 02:21:14;;;;;;;24.27;4.68;;;;;;;;;;20683449;28;20050;-61
2022/03/17 02:31:17;;;;;;;23.00;4.32;;;;;;;;;;20683439;28;20060;-60
2022/03/17 02:41:23;;;;;;;25.77;4.40;;;;;;;;;;20682769;28;20061;-57
2022/03/17 02:51:27;;;;;;;24.02;3.50;;;;;;;;;;20798056;28;20063;-57
2022/03/17 03:01:32;;;;;;;33.03;4.07;;;;;;;;;;20922800;28;20091;-59
2022/03/17 03:11:38;;;;;;;13.55;3.28;;;;;;;;;;20922942;28;20057;-59
2022/03/17 03:21:44;;;;;;;24.90;4.50;;;;;;;;;;20922499;28;20573;-60
2022/03/17 03:31:46;;;;;;;16.88;2.35;;;;;;;;;;20920572;28;20060;-58
2022/03/17 03:41:48;;;;;;;17.83;2.47;;;;;;;;;;20920201;28;20409;-58
2022/03/17 03:51:49;;;;;;;15.45;1.67;;;;;;;;;;20918745;28;20044;-58
2022/03/17 04:02:07;;;;;;;14.80;1.70;;;;;;;;;;20918419;28;20425;-58
2022/03/17 04:12:10;;;;;;;12.77;1.77;;;;;;;;;;20917715;28;20405;-59
2022/03/17 04:22:12;;;;;;;11.70;2.90;;;;;;;;;;20916473;28;20048;-59
2022/03/17 04:32:15;;;;;;;7.10;1.85;;;;;;;;;;20916386;28;20451;-60
2022/03/17 04:42:18;;;;;;;14.13;2.67;;;;;;;;;;20914469;28;20087;-58
2022/03/17 05:02:43;;;;;;;12.02;2.17;;;;;;;;;;20913544;28;20049;-56
2022/03/17 05:12:50;;;;;;;10.30;2.25;;;;;;;;;;20913248;28;20401;-58
2022/03/17 05:22:53;;;;;;;14.63;2.47;;;;;;;;;;20912580;28;20076;-56
2022/03/17 05:32:56;;;;;;;10.77;2.53;;;;;;;;;;20912761;28;20512;-57
2022/03/17 05:42:59;;;;;;;16.58;3.13;;;;;;;;;;20927545;28;20139;-57
2022/03/17 05:53:01;;;;;;;14.15;2.38;;;;;;;;;;20911169;28;20053;-58
2022/03/17 06:03:04;;;;;;;16.75;2.55;;;;;;;;;;20911384;28;20547;-58
2022/03/17 06:13:07;;;;;;;17.95;2.53;;;;;;;;;;20910310;28;20053;-56
2022/03/17 06:23:10;;;;;;;9.43;2.22;;;;;;;;;;20920033;28;20049;-56
2022/03/17 06:33:14;;;;;;;10.55;2.30;;;;;;;;;;20926193;28;20048;-58
2022/03/17 06:43:17;;;;;;;10.00;1.92;;;;;;;;;;20925586;28;20474;-58
2022/03/17 06:53:19;;;;;;;8.00;1.50;;;;;;;;;;20924003;28;20088;-62
2022/03/17 07:03:21;;;;;;;7.38;1.67;;;;;;;;;;20922528;28;20057;-64
2022/03/17 07:13:23;;;;;;;10.20;0.95;;;;;;;;;;20923020;28;20049;-56
2022/03/17 07:23:26;;;;;;;2.10;0.65;;;;;;;;;;20921697;28;20045;-56
2022/03/17 07:33:28;;;;;;;5.70;1.00;;;;;;;;;;20920444;28;20549;-58
2022/03/17 07:43:30;;;;;;;5.80;1.23;;;;;;;;;;20919482;28;20056;-58
2022/03/17 07:53:32;;;;;;;10.55;3.13;;;;;;;;;;20919081;28;20540;-57
2022/03/17 08:03:35;;;;;;;5.00;1.25;;;;;;;;;;20916448;28;20041;-58
2022/03/17 08:13:37;;;;;;;4.25;1.38;;;;;;;;;;20916994;28;20049;-65
2022/03/17 08:23:39;;;;;;;5.28;1.05;;;;;;;;;;20917092;28;20051;-66
2022/03/17 08:33:41;;;;;;;2.78;0.70;;;;;;;;;;20916452;28;20057;-64
2022/03/17 08:43:43;;;;;;;2.90;1.00;;;;;;;;;;20913967;28;20049;-65
2022/03/17 08:53:45;;;;;;;3.50;1.02;;;;;;;;;;20914362;28;20057;-63
2022/03/17 09:03:47;;;;;;;3.90;1.05;;;;;;;;;;20913686;28;20072;-60
2022/03/17 09:13:49;;;;;;;2.17;0.98;;;;;;;;;;20912783;28;20489;-63
2022/03/17 09:23:52;;;;;;;4.28;0.80;;;;;;;;;;20912148;28;20059;-63
2022/03/17 09:33:55;;;;;;;2.15;0.88;;;;;;;;;;20911499;28;20123;-64
2022/03/17 09:43:57;;;;;;;4.75;1.00;;;;;;;;;;20912149;28;20519;-64
2022/03/17 09:54:00;;;;;;;3.10;1.10;;;;;;;;;;20915320;28;20166;-63
2022/03/17 10:04:03;;;;;;;1.45;0.70;;;;;;;;;;20927267;28;20049;-66
2022/03/17 10:14:05;;;;;;;1.10;0.50;;;;;;;;;;20926684;28;20052;-65
2022/03/17 10:24:08;;;;;;;2.78;0.63;;;;;;;;;;20926238;28;20064;-65
2022/03/17 10:34:11;;;;;;;46.72;36.05;;;;;;;;;;20909417;28;20478;-59
2022/03/17 10:44:15;;;;;;;5.50;3.60;;;;;;;;;;20882836;28;20587;-59
2022/03/17 10:54:18;;;;;;;3.70;0.60;;;;;;;;;;20913031;28;20076;-65
2022/03/17 11:04:21;;;;;;;2.10;0.43;;;;;;;;;;20922277;28;20317;-67
2022/03/17 11:14:23;;;;;;;1.20;0.90;;;;;;;;;;20921772;28;20064;-58
2022/03/17 11:24:26;;;;;;;1.55;0.52;;;;;;;;;;20921448;28;20053;-65
2022/03/17 11:34:41;;;;;;;1.15;0.60;;;;;;;;;;20920843;28;20496;-66
2022/03/17 11:44:43;;;;;;;0.90;0.55;;;;;;;;;;20899128;28;20054;-60
2022/03/17 11:54:45;;;;;;;1.45;0.73;;;;;;;;;;20849927;28;20053;-62
2022/03/17 12:04:51;;;;;;;1.08;0.50;;;;;;;;;;20854961;28;20049;-62
2022/03/17 12:14:54;;;;;;;1.35;0.73;;;;;;;;;;20916080;28;20052;-60
2022/03/17 12:25:01;;;;;;;2.97;0.50;;;;;;;;;;20915727;28;20060;-59
2022/03/17 12:35:03;;;;;;;2.08;0.80;;;;;;;;;;20914728;28;20056;-60
2022/03/17 12:45:06;;;;;;;1.15;0.63;;;;;;;;;;20914619;28;20131;-60
2022/03/17 12:55:09;;;;;;;1.48;0.60;;;;;;;;;;20912361;28;20056;-59
2022/03/17 13:15:31;;;;;;;2.30;1.23;;;;;;;;;;20909012;28;20052;-60
2022/03/17 13:25:34;;;;;;;1.65;0.70;;;;;;;;;;20909700;28;20048;-65
2022/03/17 13:35:37;;;;;;;1.73;0.70;;;;;;;;;;20910481;28;20049;-59
2022/03/17 13:45:40;;;;;;;3.70;1.00;;;;;;;;;;20911730;28;20053;-66
2022/03/17 13:55:47;;;;;;;1.50;0.47;;;;;;;;;;20910470;28;20081;-68
2022/03/17 14:06:02;;;;;;;2.40;0.60;;;;;;;;;;20910742;28;20056;-67
2022/03/17 14:16:04;;;;;;;;;;;;;;;;;;20909715;28;20056;-67
2022/03/17 14:26:07;;;;;;;2.65;0.60;;;;;;;;;;20909469;28;19921;-66
2022/03/17 14:36:13;;;;;;;2.45;0.80;;;;;;;;;;20911234;28;20409;-70
2022/03/17 14:46:15;;;;;;;2.15;0.80;;;;;;;;;;20921522;28;20053;-67
2022/03/17 14:56:18;;;;;;;3.28;1.35;;;;;;;;;;20922708;28;20052;-67
2022/03/17 15:06:25;;;;;;;1.00;0.65;;;;;;;;;;20921863;28;20049;-68
2022/03/17 15:16:27;;;;;;;3.72;1.80;;;;;;;;;;20922500;28;20467;-63
2022/03/17 15:26:28;;;;;;;0.95;0.60;;;;;;;;;;20920314;28;20057;-57
2022/03/17 15:36:30;;;;;;;1.85;0.70;;;;;;;;;;20920040;28;20053;-64
2022/03/17 15:46:32;;;;;;;1.10;0.60;;;;;;;;;;20919885;28;20053;-64
2022/03/17 15:56:33;;;;;;;1.73;0.52;;;;;;;;;;20917345;28;20056;-64
2022/03/17 16:06:35;;;;;;;0.93;0.45;;;;;;;;;;20918242;28;20052;-68
2022/03/17 16:16:38;;;;;;;1.95;0.70;;;;;;;;;;20918670;28;20469;-63
2022/03/17 16:26:40;;;;;;;1.63;0.70;;;;;;;;;;20917317;28;20542;-68
2022/03/17 16:36:44;;;;;;;0.95;0.45;;;;;;;;;;20917585;28;20477;-66
2022/03/17 16:46:47;;;;;;;2.58;0.60;;;;;;;;;;20915583;28;20067;-66
2022/03/17 16:56:49;;;;;;;2.75;0.60;;;;;;;;;;20914296;28;20049;-66
2022/03/17 17:06:51;;;;;;;4.88;0.68;;;;;;;;;;20914839;28;20056;-64
2022/03/17 17:16:54;;;;;;;3.85;0.85;;;;;;;;;;20914601;28;20049;-66
2022/03/17 17:37:16;;;;;;;2.38;0.50;;;;;;;;;;20911844;28;20126;-66
2022/03/17 17:47:19;;;;;;;2.17;0.50;;;;;;;;;;20910672;28;20098;-64
2022/03/17 17:57:21;;;;;;;2.55;0.60;;;;;;;;;;20912295;28;20136;-65
2022/03/17 18:07:23;;;;;;;0.90;0.60;;;;;;;;;;20910868;28;20045;-65
2022/03/17 18:17:25;;;;;;;0.93;0.50;;;;;;;;;;20918286;28;20053;-65
2022/03/17 18:27:27;;;;;;;4.35;0.90;;;;;;;;;;20925310;28;20056;-64
2022/03/17 18:37:30;;;;;;;1.45;0.50;;;;;;;;;;20924070;28;20118;-60
2022/03/17 18:47:31;;;;;;;11.52;5.00;;;;;;;;;;20923523;28;20056;-58
2022/03/17 18:57:33;;;;;;;3.53;0.73;;;;;;;;;;20923031;28;20118;-58
2022/03/17 19:07:37;;;;;;;3.17;0.80;;;;;;;;;;20922244;28;20076;-59
2022/03/17 19:17:39;;;;;;;2.60;1.65;;;;;;;;;;20919072;28;20512;-61
2022/03/17 19:27:43;;;;;;;1.48;0.80;;;;;;;;;;20917535;28;20053;-64
2022/03/17 19:37:46;;;;;;;3.55;0.90;;;;;;;;;;20917389;28;20049;-61
2022/03/17 19:47:48;;;;;;;1.52;0.60;;;;;;;;;;20917058;28;20045;-59
2022/03/17 19:57:50;;;;;;;2.65;0.98;;;;;;;;;;20918687;28;20126;-57
2022/03/17 20:07:52;;;;;;;2.55;1.00;;;;;;;;;;20919607;28;20056;-57
2022/03/17 20:17:56;;;;;;;1.50;0.90;;;;;;;;;;20920681;28;20071;-57
2022/03/17 20:27:59;;;;;;;3.10;1.20;;;;;;;;;;20915267;28;20056;-62
2022/03/17 20:38:01;;;;;;;5.10;1.42;;;;;;;;;;20914313;28;20044;-60
2022/03/17 20:48:03;;;;;;;4.30;1.20;;;;;;;;;;20914660;28;20115;-58
2022/03/17 20:58:04;;;;;;;1.92;1.13;;;;;;;;;;20914699;28;20114;-68
2022/03/17 21:08:06;;;;;;;2.90;1.20;;;;;;;;;;20915318;28;20060;-68
2022/03/17 21:18:08;;;;;;;2.65;0.80;;;;;;;;;;20914671;28;20052;-74
2022/03/17 21:28:10;;;;;;;2.38;1.00;;;;;;;;;;20913359;28;20091;-74
2022/03/17 21:38:11;;;;;;;3.97;1.17;;;;;;;;;;20916109;28;20455;-73
2022/03/17 21:48:13;;;;;;;2.67;1.05;;;;;;;;;;20956362;28;20496;-70
2022/03/17 21:58:15;;;;;;;2.22;1.15;;;;;;;;;;20955541;28;20033;-64
2022/03/17 22:08:17;;;;;;;4.00;1.38;;;;;;;;;;20968146;28;20041;-77
2022/03/17 22:18:20;;;;;;;6.20;2.08;;;;;;;;;;20935045;28;20432;-76
2022/03/17 22:28:24;;;;;;;2.97;1.40;;;;;;;;;;20951084;28;20049;-57
2022/03/17 22:38:26;;;;;;;5.47;1.45;;;;;;;;;;20932783;28;20045;-72
2022/03/17 22:48:28;;;;;;;3.80;0.95;;;;;;;;;;20926362;28;20131;-73
2022/03/17 22:58:30;;;;;;;5.93;1.35;;;;;;;;;;20927096;28;20127;-71
2022/03/17 23:08:32;;;;;;;3.67;1.08;;;;;;;;;;20924225;28;20052;-71
2022/03/17 23:18:33;;;;;;;2.08;1.00;;;;;;;;;;20927571;28;20048;-74
2022/03/17 23:28:35;;;;;;;2.90;1.42;;;;;;;;;;20926128;28;20497;-70
2022/03/17 23:38:39;;;;;;;4.57;1.27;;;;;;;;;;20921430;28;20053;-75
2022/03/17 23:48:41;;;;;;;1.58;0.70;;;;;;;;;;20922217;28;20089;-72
2022/03/17 23:58:42;;;;;;;2.10;1.23;;;;;;;;;;20920305;28;20482;-73
